Cheboygan, MI

10:45 PM EDT on June 22, 2017 (GMT -0400)
Cordwood Point on Lake Huron | | Change Station

Elev 586 ft 45.66 °N, 84.32 °W | Updated 31 seconds ago

Overcast
Overcast
65.1 °F
Feels Like 65.1 °F
N
0.4
Wind Variable Wind from SSW
Gusts 2.5 mph

Today
High -- | Low -- °F
--% Chance of Precip.
Yesterday
High -- | Low -- °F
Precip. -- in
Pressure 29.69 in
Visibility 10.0 miles
Clouds Scattered Clouds 800 ft
Mostly Cloudy 4500 ft
Overcast 5500 ft
Dew Point 65 °F
Humidity 99%
Rainfall 0.79 in
Snow Depth Not available.
5:48 AM 9:30 PM
Waning Crescent, 2% visible
METAR KSLH 230234Z AUTO 25004KT 10SM SCT008 BKN045 OVC055 17/17 A2969 RMK AO2 T01750170
Pressure 29.69 in
Visibility 10.0 miles
Clouds Scattered Clouds 800 ft
Mostly Cloudy 4500 ft
Overcast 5500 ft
Dew Point 65 °F
Humidity 99%
Rainfall 0.79 in
Snow Depth Not available.
5:48 AM 9:30 PM
Waning Crescent, 2% visible
METAR KSLH 230234Z AUTO 25004KT 10SM SCT008 BKN045 OVC055 17/17 A2969 RMK AO2 T01750170

Get Severe Weather Alerts

Thanks for signing up!

Be on the lookout for a verification email in your inbox.

You'll start receiving the daily forecast at 6 AM.

×

10-Day Weather Forecast

Almanac

Astronomy

Jun. 22, 2017 Rise Set
Actual Time
Civil Twilight
Nautical Twilight
Astronomical Twilight
Moon
Length of Visible Light
Length of Day
Tomorrow will be .
, % of the Moon is Illuminated

Today's Extremes

State Highs State Lows

Community

WunderPhotos

Category 6

Welcome to Category 6. This is the collective home for Weather Underground's featured writeups by Dr. Jeff Masters (right), Bob Henson (left), Chris Burt, and other regular contributors.

Nearby

Air Quality

  Air Quality AQ Index Pollutant
Not available.

Snow Depth

Station Depth Elevation

Earthquake Activity

City Distance Mag. Time & Date
Minimum magnitude displayed is 2.5.

Coastal Water Temperatures

Place Temperature

Stations

Nearby Weather Stations

Station Location Temp. Windchill Dew Point Humidity Wind Precip. Elev Updated Type
                   

Watches & Warnings

There are currently no watches in effect.